Time,TemperatureF,DewpointF,PressureIn,WindDirection,WindDirectionDegrees,WindSpeedMPH,WindSpeedGustMPH,Humidity,HourlyPrecipIn,Conditions,Clouds,dailyrainin,SolarRadiationWatts/m^2,SoftwareType,DateUTC
2013-05-06 00:02:00,57.0,21.0,-100.00,South,179,1.0,6.0,24,0.00,,,0.00,0.000000,,2013-05-06 04:02:00,
2013-05-06 00:32:00,55.0,24.0,-100.00,SSE,155,2.0,8.0,30,0.00,,,0.00,0.000000,,2013-05-06 04:32:00,
2013-05-06 00:43:00,55.0,24.0,-100.00,SSE,155,2.0,8.0,30,0.00,,,0.00,0.000000,,2013-05-06 04:43:00,
2013-05-06 00:53:00,55.0,24.0,-100.00,SSE,155,2.0,8.0,30,0.00,,,0.00,0.000000,,2013-05-06 04:53:00,
2013-05-06 01:02:00,55.0,24.0,-100.00,SSE,155,2.0,8.0,30,0.00,,,0.00,0.000000,,2013-05-06 05:02:00,
2013-05-06 01:32:00,53.0,28.0,-100.00,South,180,1.0,5.0,38,0.00,,,0.00,0.000000,,2013-05-06 05:32:00,
2013-05-06 01:42:00,53.0,28.0,-100.00,South,180,1.0,5.0,38,0.00,,,0.00,0.000000,,2013-05-06 05:42:00,
2013-05-06 01:52:00,53.0,28.0,-100.00,South,180,1.0,5.0,38,0.00,,,0.00,0.000000,,2013-05-06 05:52:00,
2013-05-06 02:02:00,53.0,28.0,-100.00,South,180,1.0,5.0,38,0.00,,,0.00,0.000000,,2013-05-06 06:02:00,
2013-05-06 02:32:00,51.0,31.0,-100.00,SSE,155,2.0,7.0,47,0.00,,,0.00,0.000000,,2013-05-06 06:32:00,
2013-05-06 02:42:00,51.0,31.0,-100.00,SSE,155,2.0,7.0,47,0.00,,,0.00,0.000000,,2013-05-06 06:42:00,
2013-05-06 02:52:00,51.0,31.0,-100.00,SSE,155,2.0,7.0,47,0.00,,,0.00,0.000000,,2013-05-06 06:52:00,
2013-05-06 03:01:00,51.0,31.0,-100.00,SSE,155,2.0,7.0,47,0.00,,,0.00,0.000000,,2013-05-06 07:01:00,
2013-05-06 03:32:00,50.0,33.0,-100.00,NNE,25,1.0,7.0,52,0.00,,,0.00,0.000000,,2013-05-06 07:32:00,
2013-05-06 03:42:00,50.0,33.0,-100.00,NNE,25,1.0,7.0,52,0.00,,,0.00,0.000000,,2013-05-06 07:42:00,
2013-05-06 03:52:00,50.0,33.0,-100.00,NNE,25,1.0,7.0,52,0.00,,,0.00,0.000000,,2013-05-06 07:52:00,
2013-05-06 04:02:00,50.0,33.0,-100.00,NNE,25,1.0,7.0,52,0.00,,,0.00,0.000000,,2013-05-06 08:02:00,
2013-05-06 04:32:00,47.0,34.0,-100.00,NNE,18,1.0,7.0,60,0.00,,,0.00,0.000000,,2013-05-06 08:32:00,
2013-05-06 04:42:00,47.0,34.0,-100.00,NNE,18,1.0,7.0,60,0.00,,,0.00,0.000000,,2013-05-06 08:42:00,
2013-05-06 04:52:00,47.0,34.0,-100.00,NNE,18,1.0,7.0,60,0.00,,,0.00,0.000000,,2013-05-06 08:52:00,
2013-05-06 05:02:00,47.0,34.0,-100.00,NNE,18,1.0,7.0,60,0.00,,,0.00,0.000000,,2013-05-06 09:02:00,
2013-05-06 05:33:00,45.0,34.0,-100.00,South,175,0.0,4.0,66,0.00,,,0.00,0.000000,,2013-05-06 09:33:00,
2013-05-06 05:43:00,45.0,34.0,-100.00,South,175,0.0,4.0,66,0.00,,,0.00,0.000000,,2013-05-06 09:43:00,
2013-05-06 05:53:00,45.0,34.0,-100.00,South,175,0.0,4.0,66,0.00,,,0.00,0.000000,,2013-05-06 09:53:00,
2013-05-06 06:03:00,45.0,34.0,-100.00,South,175,0.0,4.0,66,0.00,,,0.00,0.000000,,2013-05-06 10:03:00,
2013-05-06 06:33:00,43.0,35.0,-100.00,North,8,1.0,6.0,73,0.00,,,0.00,1.000000,,2013-05-06 10:33:00,
2013-05-06 06:42:00,43.0,35.0,-100.00,North,8,1.0,6.0,73,0.00,,,0.00,1.000000,,2013-05-06 10:42:00,
2013-05-06 06:52:00,43.0,35.0,-100.00,North,8,1.0,6.0,73,0.00,,,0.00,1.000000,,2013-05-06 10:52:00,
2013-05-06 07:02:00,43.0,35.0,-100.00,North,8,1.0,6.0,73,0.00,,,0.00,1.000000,,2013-05-06 11:02:00,
2013-05-06 07:32:00,44.0,36.0,-100.00,WNW,298,1.0,3.0,74,0.00,,,0.00,21.000000,,2013-05-06 11:32:00,
2013-05-06 07:42:00,44.0,36.0,-100.00,WNW,298,1.0,3.0,74,0.00,,,0.00,21.000000,,2013-05-06 11:42:00,
2013-05-06 07:52:00,44.0,36.0,-100.00,WNW,298,1.0,3.0,74,0.00,,,0.00,21.000000,,2013-05-06 11:52:00,
2013-05-06 08:02:00,44.0,36.0,-100.00,WNW,298,1.0,3.0,74,0.00,,,0.00,21.000000,,2013-05-06 12:02:00,
2013-05-06 08:32:00,48.0,37.0,-100.00,WSW,240,1.0,4.0,66,0.00,,,-99.99,62.000000,,2013-05-06 12:32:00,
2013-05-06 08:42:00,48.0,37.0,-100.00,WSW,240,1.0,4.0,66,0.00,,,-99.99,62.000000,,2013-05-06 12:42:00,
2013-05-06 08:52:00,48.0,37.0,-100.00,WSW,240,1.0,4.0,66,0.00,,,-99.99,62.000000,,2013-05-06 12:52:00,
2013-05-06 09:01:00,48.0,37.0,-100.00,WSW,240,1.0,4.0,66,0.00,,,-99.99,62.000000,,2013-05-06 13:01:00,
2013-05-06 10:32:00,63.0,34.0,-100.00,SSW,197,6.0,9.0,34,-99.99,,,0.00,689.000000,,2013-05-06 14:32:00,
2013-05-06 10:42:00,63.0,34.0,-100.00,SSW,197,6.0,9.0,34,-99.99,,,0.00,689.000000,,2013-05-06 14:42:00,
2013-05-06 10:52:00,63.0,34.0,-100.00,SSW,197,6.0,9.0,34,-99.99,,,0.00,689.000000,,2013-05-06 14:52:00,
2013-05-06 11:01:00,63.0,34.0,-100.00,SSW,197,6.0,9.0,34,-99.99,,,0.00,689.000000,,2013-05-06 15:01:00,
2013-05-06 11:33:00,67.0,31.0,-100.00,South,179,6.0,11.0,26,0.00,,,0.00,839.000000,,2013-05-06 15:33:00,
2013-05-06 11:43:00,67.0,31.0,-100.00,South,179,6.0,11.0,26,0.00,,,0.00,839.000000,,2013-05-06 15:43:00,
2013-05-06 11:53:00,67.0,31.0,-100.00,South,179,6.0,11.0,26,0.00,,,0.00,839.000000,,2013-05-06 15:53:00,
2013-05-06 12:03:00,67.0,31.0,-100.00,South,179,6.0,11.0,26,0.00,,,0.00,839.000000,,2013-05-06 16:03:00,
2013-05-06 12:33:00,72.0,30.0,-100.00,SW,215,5.0,11.0,21,0.00,,,0.00,1032.000000,,2013-05-06 16:33:00,
2013-05-06 12:42:00,72.0,30.0,-100.00,SW,215,5.0,11.0,21,0.00,,,0.00,1032.000000,,2013-05-06 16:42:00,
2013-05-06 12:52:00,72.0,30.0,-100.00,SW,215,5.0,11.0,21,0.00,,,0.00,1032.000000,,2013-05-06 16:52:00,
2013-05-06 13:03:00,72.0,30.0,-100.00,SW,215,5.0,11.0,21,0.00,,,0.00,1032.000000,,2013-05-06 17:03:00,
2013-05-06 15:32:00,75.0,35.0,-100.00,SSW,204,6.0,14.0,23,-99.99,,,-99.99,865.000000,,2013-05-06 19:32:00,
2013-05-06 15:42:00,75.0,35.0,-100.00,SSW,204,6.0,14.0,23,-99.99,,,-99.99,865.000000,,2013-05-06 19:42:00,
2013-05-06 15:52:00,75.0,35.0,-100.00,SSW,204,6.0,14.0,23,-99.99,,,-99.99,865.000000,,2013-05-06 19:52:00,
2013-05-06 16:02:00,75.0,35.0,-100.00,SSW,204,6.0,14.0,23,-99.99,,,-99.99,865.000000,,2013-05-06 20:02:00,
2013-05-06 16:32:00,78.0,38.0,-100.00,South,179,5.0,15.0,24,0.00,,,0.00,840.000000,,2013-05-06 20:32:00,
2013-05-06 16:42:00,78.0,38.0,-100.00,South,179,5.0,15.0,24,0.00,,,0.00,840.000000,,2013-05-06 20:42:00,
2013-05-06 16:52:00,78.0,38.0,-100.00,South,179,5.0,15.0,24,0.00,,,0.00,840.000000,,2013-05-06 20:52:00,
2013-05-06 17:01:00,78.0,38.0,-100.00,South,179,5.0,15.0,24,0.00,,,0.00,840.000000,,2013-05-06 21:01:00,
2013-05-06 17:33:00,77.0,42.0,-100.00,South,172,8.0,14.0,29,0.00,,,-99.99,635.000000,,2013-05-06 21:33:00,
2013-05-06 17:43:00,77.0,42.0,-100.00,South,172,8.0,14.0,29,0.00,,,-99.99,635.000000,,2013-05-06 21:43:00,
2013-05-06 17:53:00,77.0,42.0,-100.00,South,172,8.0,14.0,29,0.00,,,-99.99,635.000000,,2013-05-06 21:53:00,
2013-05-06 18:03:00,77.0,42.0,-100.00,South,172,8.0,14.0,29,0.00,,,-99.99,635.000000,,2013-05-06 22:03:00,
2013-05-06 18:33:00,75.0,44.0,-100.00,SSE,160,7.0,15.0,33,0.00,,,0.00,466.000000,,2013-05-06 22:33:00,
2013-05-06 18:45:00,75.0,44.0,-100.00,SSE,160,7.0,15.0,33,0.00,,,0.00,466.000000,,2013-05-06 22:45:00,
2013-05-06 18:52:00,75.0,44.0,-100.00,SSE,160,7.0,15.0,33,0.00,,,0.00,466.000000,,2013-05-06 22:52:00,
2013-05-06 19:03:00,75.0,44.0,-100.00,SSE,160,7.0,15.0,33,0.00,,,0.00,466.000000,,2013-05-06 23:03:00,
2013-05-06 19:32:00,71.0,43.0,-100.00,South,181,8.0,18.0,37,0.00,,,0.00,272.000000,,2013-05-06 23:32:00,
2013-05-06 19:42:00,71.0,43.0,-100.00,South,181,8.0,18.0,37,0.00,,,0.00,272.000000,,2013-05-06 23:42:00,
2013-05-06 19:52:00,71.0,43.0,-100.00,South,181,8.0,18.0,37,0.00,,,0.00,272.000000,,2013-05-06 23:52:00,
2013-05-06 20:01:00,71.0,43.0,-100.00,South,181,8.0,18.0,37,0.00,,,0.00,272.000000,,2013-05-07 00:01:00,
2013-05-06 21:32:00,64.0,45.0,-100.00,South,169,5.0,10.0,51,-99.99,,,0.00,2.000000,,2013-05-07 01:32:00,
2013-05-06 21:42:00,64.0,45.0,-100.00,South,169,5.0,10.0,51,-99.99,,,0.00,2.000000,,2013-05-07 01:42:00,
2013-05-06 21:53:00,64.0,45.0,-100.00,South,169,5.0,10.0,51,-99.99,,,0.00,2.000000,,2013-05-07 01:53:00,
2013-05-06 22:02:00,64.0,45.0,-100.00,South,169,5.0,10.0,51,-99.99,,,0.00,2.000000,,2013-05-07 02:02:00,
2013-05-06 22:32:00,61.0,47.0,-100.00,SSE,151,3.0,9.0,61,0.00,,,0.00,0.000000,,2013-05-07 02:32:00,
2013-05-06 22:42:00,61.0,47.0,-100.00,SSE,151,3.0,9.0,61,0.00,,,0.00,0.000000,,2013-05-07 02:42:00,
2013-05-06 22:52:00,61.0,47.0,-100.00,SSE,151,3.0,9.0,61,0.00,,,0.00,0.000000,,2013-05-07 02:52:00,
2013-05-06 23:02:00,61.0,47.0,-100.00,SSE,151,3.0,9.0,61,0.00,,,0.00,0.000000,,2013-05-07 03:02:00,
2013-05-06 23:33:00,59.0,48.0,-100.00,SSE,153,1.0,7.0,66,0.00,,,0.00,0.000000,,2013-05-07 03:33:00,
2013-05-06 23:43:00,59.0,48.0,-100.00,SSE,153,1.0,7.0,66,0.00,,,0.00,0.000000,,2013-05-07 03:43:00,
2013-05-06 23:53:00,59.0,48.0,-100.00,SSE,153,1.0,7.0,66,0.00,,,0.00,0.000000,,2013-05-07 03:53:00,